Time,TemperatureF,DewpointF,PressureIn,WindDirection,WindDirectionDegrees,WindSpeedMPH,WindSpeedGustMPH,Humidity,HourlyPrecipIn,Conditions,Clouds,dailyrainin,SoftwareType,DateUTC
2018-01-16 00:01:00,24.1,17.3,30.39,NW,315,4.7,4.7,75,0.00,,SKC,0.00,VWS V14.01,2018-01-16 05:01:00,
2018-01-16 00:19:00,23.7,17.0,30.39,NW,315,4.7,4.7,75,0.00,,SKC,0.00,VWS V14.01,2018-01-16 05:19:00,
2018-01-16 00:25:00,23.7,17.0,30.39,NW,315,4.7,4.7,75,0.00,,SKC,0.00,VWS V14.01,2018-01-16 05:25:00,
2018-01-16 00:33:00,23.5,16.8,30.39,NW,315,4.7,4.7,75,0.00,,SKC,0.00,VWS V14.01,2018-01-16 05:33:00,
2018-01-16 00:51:00,23.4,16.9,30.39,NW,315,4.7,4.7,76,0.00,,SKC,0.00,VWS V14.01,2018-01-16 05:51:00,
2018-01-16 00:59:00,23.5,17.1,30.39,NW,315,4.7,4.7,76,0.00,,SKC,0.00,VWS V14.01,2018-01-16 05:59:00,
2018-01-16 01:07:00,23.5,17.1,30.39,NW,315,4.7,4.7,76,0.00,,SKC,0.00,VWS V14.01,2018-01-16 06:07:00,
2018-01-16 01:16:00,23.7,17.3,30.39,NW,315,4.7,4.7,76,0.00,,SKC,0.00,VWS V14.01,2018-01-16 06:16:00,
2018-01-16 01:21:00,23.7,17.3,30.39,NW,315,4.7,4.7,76,0.00,,SKC,0.00,VWS V14.01,2018-01-16 06:21:00,
2018-01-16 01:27:00,23.7,17.3,30.39,NW,315,4.7,4.7,76,0.00,,SKC,0.00,VWS V14.01,2018-01-16 06:27:00,
2018-01-16 01:37:00,23.7,17.0,30.39,NW,315,4.7,4.7,75,0.00,,SKC,0.00,VWS V14.01,2018-01-16 06:37:00,
2018-01-16 01:46:00,23.5,16.8,30.39,NW,315,4.7,4.7,75,0.00,,SKC,0.00,VWS V14.01,2018-01-16 06:46:00,
2018-01-16 02:09:00,23.2,16.5,30.41,NW,315,4.7,4.7,75,0.00,,SKC,0.00,VWS V14.01,2018-01-16 07:09:00,
2018-01-16 02:15:00,23.0,16.3,30.39,NW,315,4.7,4.7,75,0.00,,SKC,0.00,VWS V14.01,2018-01-16 07:15:00,
2018-01-16 02:20:00,22.8,16.1,30.39,NW,315,4.7,4.7,75,0.00,,SKC,0.00,VWS V14.01,2018-01-16 07:20:00,
2018-01-16 02:28:00,22.6,16.2,30.41,NW,315,4.7,4.7,76,0.00,,SKC,0.00,VWS V14.01,2018-01-16 07:28:00,
2018-01-16 02:33:00,22.5,15.8,30.41,NW,315,4.7,4.7,75,0.00,,SKC,0.00,VWS V14.01,2018-01-16 07:33:00,
2018-01-16 02:46:00,22.3,15.9,30.39,NW,315,4.7,4.7,76,0.00,,SKC,0.00,VWS V14.01,2018-01-16 07:46:00,
2018-01-16 02:59:00,22.3,15.9,30.39,NW,315,4.7,4.7,76,0.00,,SKC,0.00,VWS V14.01,2018-01-16 07:59:00,
2018-01-16 03:05:00,22.3,16.2,30.39,NW,315,4.7,4.7,77,0.00,,SKC,0.00,VWS V14.01,2018-01-16 08:05:00,
2018-01-16 03:13:00,22.3,15.9,30.39,NW,315,4.7,4.7,76,0.00,,SKC,0.00,VWS V14.01,2018-01-16 08:13:00,
2018-01-16 03:21:00,22.3,15.9,30.39,NW,315,4.7,4.7,76,0.00,,SKC,0.00,VWS V14.01,2018-01-16 08:21:00,
2018-01-16 03:31:00,22.1,15.7,30.41,NW,315,4.7,4.7,76,0.00,,SKC,0.00,VWS V14.01,2018-01-16 08:31:00,
2018-01-16 03:36:00,22.1,16.0,30.41,NW,315,4.7,4.7,77,0.00,,SKC,0.00,VWS V14.01,2018-01-16 08:36:00,
2018-01-16 03:49:00,22.3,16.5,30.41,NW,315,4.7,4.7,78,0.00,,SKC,0.00,VWS V14.01,2018-01-16 08:49:00,
2018-01-16 03:57:00,22.5,16.6,30.41,NW,315,4.7,4.7,78,0.00,,SKC,0.00,VWS V14.01,2018-01-16 08:57:00,
2018-01-16 04:03:00,22.8,17.3,30.41,NW,315,4.7,4.7,79,0.00,,SKC,0.00,VWS V14.01,2018-01-16 09:03:00,
2018-01-16 04:08:00,23.0,17.5,30.41,NW,315,4.7,4.7,79,0.00,,SKC,0.00,VWS V14.01,2018-01-16 09:08:00,
2018-01-16 04:13:00,23.2,17.6,30.39,NW,315,4.7,4.7,79,0.00,,SKC,0.00,VWS V14.01,2018-01-16 09:13:00,
2018-01-16 04:19:00,23.4,17.8,30.39,NW,315,4.7,4.7,79,0.00,,SKC,0.00,VWS V14.01,2018-01-16 09:19:00,
2018-01-16 04:24:00,23.0,17.5,30.39,NW,315,4.7,4.7,79,0.00,,SKC,0.00,VWS V14.01,2018-01-16 09:24:00,
2018-01-16 04:29:00,22.8,17.0,30.41,NW,315,4.7,4.7,78,0.00,,SKC,0.00,VWS V14.01,2018-01-16 09:29:00,
2018-01-16 04:36:00,22.8,17.3,30.41,NW,315,4.7,4.7,79,0.00,,SKC,0.00,VWS V14.01,2018-01-16 09:36:00,
2018-01-16 04:41:00,23.2,17.6,30.41,NW,315,4.7,4.7,79,0.00,,SKC,0.00,VWS V14.01,2018-01-16 09:41:00,
2018-01-16 04:48:00,23.5,18.3,30.41,NW,315,4.7,4.7,80,0.00,,SKC,0.00,VWS V14.01,2018-01-16 09:48:00,
2018-01-16 04:54:00,23.7,18.5,30.41,NW,315,4.7,4.7,80,0.00,,SKC,0.00,VWS V14.01,2018-01-16 09:54:00,
2018-01-16 04:59:00,23.9,18.4,30.41,NW,315,4.7,4.7,79,0.00,,SKC,0.00,VWS V14.01,2018-01-16 09:59:00,
2018-01-16 05:25:00,24.1,18.5,30.41,NW,315,4.7,4.7,79,0.00,,SKC,0.00,VWS V14.01,2018-01-16 10:25:00,
2018-01-16 05:52:00,23.7,17.9,30.41,NW,315,4.7,4.7,78,0.00,,SKC,0.00,VWS V14.01,2018-01-16 10:52:00,